createdAt,value
2023-04-09T00:00:17.672Z,44.47
2023-04-09T00:02:46.191Z,36.83
2023-04-09T00:05:14.265Z,38.77
2023-04-09T00:07:44.576Z,38.80
2023-04-09T00:10:13.015Z,41.33
2023-04-09T00:12:42.580Z,38.87
2023-04-09T00:15:15.031Z,36.50
2023-04-09T00:17:48.610Z,40.97
2023-04-09T00:20:17.368Z,38.90
2023-04-09T00:22:50.013Z,38.53
2023-04-09T00:25:18.988Z,44.57
2023-04-09T00:27:48.755Z,39.63
2023-04-09T00:30:20.437Z,42.37
2023-04-09T00:32:51.372Z,37.77
2023-04-09T00:35:20.878Z,36.30
2023-04-09T00:37:51.794Z,39.27
2023-04-09T00:40:20.060Z,40.33
2023-04-09T00:42:51.854Z,40.10
2023-04-09T00:45:21.098Z,40.47
2023-04-09T00:47:49.205Z,38.27
2023-04-09T00:50:17.893Z,41.17
2023-04-09T00:52:46.579Z,37.60
2023-04-09T00:55:16.840Z,41.97
2023-04-09T00:57:48.962Z,43.73
2023-04-09T01:00:18.856Z,42.40
2023-04-09T01:02:47.820Z,45.07
2023-04-09T01:05:16.581Z,40.33
2023-04-09T01:08:01.461Z,41.23
2023-04-09T01:10:32.109Z,42.77
2023-04-09T01:13:05.743Z,36.80
2023-04-09T01:15:37.218Z,38.77
2023-04-09T01:18:07.998Z,39.70
2023-04-09T01:20:37.415Z,39.50
2023-04-09T01:23:13.719Z,40.13
2023-04-09T01:25:46.836Z,38.23
2023-04-09T01:28:18.635Z,40.77
2023-04-09T01:30:49.614Z,38.23
2023-04-09T01:33:18.996Z,39.27
2023-04-09T01:35:48.203Z,38.10
2023-04-09T01:38:19.884Z,36.93
2023-04-09T01:40:48.261Z,39.80
2023-04-09T01:43:18.137Z,35.17
2023-04-09T01:45:46.625Z,38.77
2023-04-09T01:48:15.003Z,39.37
2023-04-09T01:50:43.162Z,38.40
2023-04-09T01:53:11.618Z,38.07
2023-04-09T01:55:39.857Z,40.93
2023-04-09T01:58:07.846Z,37.37
2023-04-09T02:00:39.876Z,40.80
2023-04-09T02:03:09.935Z,38.37
2023-04-09T02:05:40.400Z,38.70
2023-04-09T02:08:09.620Z,38.50
2023-04-09T02:10:37.841Z,37.93
2023-04-09T02:13:06.437Z,32.27
2023-04-09T02:15:34.730Z,41.33
2023-04-09T02:18:04.870Z,37.03
2023-04-09T02:20:33.018Z,37.17
2023-04-09T02:23:01.192Z,36.67
2023-04-09T02:25:29.199Z,38.77
2023-04-09T02:27:57.238Z,37.03
2023-04-09T02:30:25.603Z,38.43
2023-04-09T02:32:53.735Z,37.67
2023-04-09T02:35:25.553Z,38.33
2023-04-09T02:37:53.650Z,42.00
2023-04-09T02:40:22.392Z,40.80
2023-04-09T02:42:56.784Z,40.33
2023-04-09T02:45:25.195Z,39.80
2023-04-09T02:47:53.906Z,39.57
2023-04-09T02:50:26.936Z,38.40
2023-04-09T02:52:56.919Z,37.80
2023-04-09T02:55:25.372Z,34.60
2023-04-09T02:57:53.788Z,34.43
2023-04-09T03:00:22.245Z,34.70
2023-04-09T03:02:50.577Z,37.77
2023-04-09T03:05:19.024Z,34.23
2023-04-09T03:07:49.743Z,37.23
2023-04-09T03:10:18.217Z,37.17
2023-04-09T03:12:48.337Z,37.90
2023-04-09T03:15:16.924Z,37.47
2023-04-09T03:17:45.076Z,37.37
2023-04-09T03:20:13.381Z,36.47
2023-04-09T03:22:41.916Z,34.83
2023-04-09T03:25:12.318Z,35.93
2023-04-09T03:27:40.541Z,38.17
2023-04-09T03:30:09.864Z,38.93
2023-04-09T03:32:38.040Z,36.63
2023-04-09T03:35:07.117Z,36.50
2023-04-09T03:37:35.095Z,35.23
2023-04-09T03:40:04.154Z,36.13
2023-04-09T03:42:35.169Z,35.37
2023-04-09T03:45:26.312Z,34.73
2023-04-09T03:47:56.794Z,35.80
2023-04-09T03:50:26.174Z,35.17
2023-04-09T03:52:54.544Z,33.20
2023-04-09T03:55:22.929Z,34.63
2023-04-09T03:57:52.753Z,35.67
2023-04-09T04:00:21.002Z,29.53
2023-04-09T04:02:49.407Z,34.77
2023-04-09T04:05:20.518Z,31.73
2023-04-09T04:07:48.996Z,32.53
2023-04-09T04:10:17.273Z,31.30
2023-04-09T04:12:45.730Z,31.30
2023-04-09T04:15:15.218Z,31.40
2023-04-09T04:17:43.921Z,27.33
2023-04-09T04:22:39.384Z,31.23
2023-04-09T04:25:07.573Z,30.77
2023-04-09T04:27:35.396Z,28.47
2023-04-09T04:30:03.023Z,28.27
2023-04-09T04:32:32.198Z,29.93
2023-04-09T04:34:59.843Z,29.53
2023-04-09T04:37:27.702Z,29.63
2023-04-09T04:39:55.343Z,26.83
2023-04-09T04:42:23.337Z,28.00
2023-04-09T04:44:50.953Z,27.17
2023-04-09T04:47:19.430Z,30.77
2023-04-09T04:49:48.458Z,27.23
2023-04-09T04:52:17.788Z,26.57
2023-04-09T04:54:45.524Z,25.77
2023-04-09T04:57:13.327Z,26.23
2023-04-09T04:59:41.300Z,26.50
2023-04-09T05:02:09.206Z,24.73
2023-04-09T05:04:37.115Z,24.50
2023-04-09T05:07:06.351Z,25.00
2023-04-09T05:09:33.987Z,26.20
2023-04-09T05:12:01.751Z,22.67
2023-04-09T05:14:29.417Z,24.20
2023-04-09T05:16:57.232Z,25.07
2023-04-09T05:19:24.936Z,25.67
2023-04-09T05:21:52.706Z,25.87
2023-04-09T05:24:21.834Z,24.37
2023-04-09T05:26:49.487Z,22.50
2023-04-09T05:29:17.667Z,23.77
2023-04-09T05:31:45.611Z,25.63
2023-04-09T05:34:13.362Z,23.40
2023-04-09T05:36:41.219Z,22.83
2023-04-09T05:39:08.987Z,21.97
2023-04-09T05:41:38.705Z,22.20
2023-04-09T05:44:07.898Z,21.93
2023-04-09T05:46:35.632Z,22.03
2023-04-09T05:49:03.489Z,20.67
2023-04-09T05:51:31.268Z,20.73
2023-04-09T05:53:59.284Z,22.60
2023-04-09T05:56:28.000Z,21.33
2023-04-09T05:58:57.208Z,20.57
2023-04-09T06:01:25.026Z,23.27
2023-04-09T06:03:55.312Z,19.93
2023-04-09T06:06:24.926Z,20.97
2023-04-09T06:08:52.751Z,19.03
2023-04-09T06:11:21.302Z,19.10
2023-04-09T06:13:49.085Z,19.60
2023-04-09T06:16:18.146Z,16.60
2023-04-09T06:18:49.535Z,15.53
2023-04-09T06:21:17.418Z,16.23
2023-04-09T06:23:45.056Z,16.90
2023-04-09T06:26:12.805Z,16.33
2023-04-09T06:28:40.444Z,16.57
2023-04-09T06:31:09.316Z,15.80
2023-04-09T06:33:38.361Z,16.03
2023-04-09T06:36:06.778Z,16.73
2023-04-09T06:38:34.472Z,15.63
2023-04-09T06:41:02.300Z,16.20
2023-04-09T06:43:29.938Z,16.60
2023-04-09T06:45:57.923Z,16.17
2023-04-09T06:48:25.617Z,16.93
2023-04-09T06:50:54.853Z,18.23
2023-04-09T06:53:22.785Z,17.83
2023-04-09T06:55:51.273Z,15.17
2023-04-09T06:58:18.957Z,15.27
2023-04-09T07:00:46.784Z,14.40
2023-04-09T07:03:15.515Z,14.57
2023-04-09T07:05:43.474Z,14.37
2023-04-09T07:08:12.934Z,13.27
2023-04-09T07:10:40.813Z,13.77
2023-04-09T07:13:08.648Z,13.77
2023-04-09T07:15:36.719Z,13.73
2023-04-09T10:48:21.937Z,8.27
2023-04-09T10:50:51.835Z,9.15
2023-04-09T10:54:02.758Z,8.80
2023-04-09T10:57:06.250Z,8.93
2023-04-09T11:04:02.105Z,8.18
2023-04-09T11:06:30.075Z,8.13
2023-04-09T11:09:15.291Z,7.72
2023-04-09T11:11:55.808Z,8.93
2023-04-09T11:14:40.753Z,8.70
2023-04-09T11:17:17.619Z,8.82
2023-04-09T11:19:51.430Z,8.82
2023-04-09T11:22:19.365Z,8.45
2023-04-09T11:24:47.845Z,8.07
2023-04-09T11:27:20.019Z,8.23
2023-04-09T11:29:53.200Z,8.88
2023-04-09T11:32:26.155Z,8.25
2023-04-09T11:35:48.736Z,7.53
2023-04-09T11:38:17.205Z,6.35
2023-04-09T11:40:56.056Z,9.02
2023-04-09T11:44:05.016Z,8.07
2023-04-09T11:46:36.680Z,7.10
2023-04-09T11:49:05.994Z,7.65
2023-04-09T11:51:35.453Z,8.38
2023-04-09T11:54:03.714Z,8.25
2023-04-09T11:56:32.498Z,8.32
2023-04-09T11:59:00.310Z,7.38
2023-04-09T12:01:32.396Z,7.90
2023-04-09T12:04:00.746Z,8.38
2023-04-09T12:06:30.453Z,7.55
2023-04-09T12:08:58.815Z,8.38
2023-04-09T12:11:29.283Z,6.50
2023-04-09T12:14:01.481Z,8.45
2023-04-09T12:16:31.516Z,7.40
2023-04-09T12:19:02.372Z,8.13
2023-04-09T12:21:50.180Z,7.80
2023-04-09T12:24:18.357Z,7.83
2023-04-09T12:26:46.383Z,8.35
2023-04-09T12:29:15.159Z,8.07
2023-04-09T12:31:43.250Z,7.50
2023-04-09T12:34:11.070Z,7.83
2023-04-09T12:36:39.692Z,7.80
2023-04-09T12:39:09.970Z,7.60
2023-04-09T12:41:39.299Z,8.52
2023-04-09T12:44:07.695Z,7.80
2023-04-09T12:46:35.655Z,7.50
2023-04-09T12:49:04.369Z,7.53
2023-04-09T12:51:32.731Z,7.77
2023-04-09T12:54:00.894Z,7.73
2023-04-09T12:56:30.278Z,7.47
2023-04-09T12:58:58.171Z,7.60
2023-04-09T13:01:26.030Z,7.37
2023-04-09T13:03:54.380Z,8.20
2023-04-09T13:06:23.229Z,7.63
2023-04-09T13:08:51.570Z,6.30
2023-04-09T13:11:19.435Z,6.17
2023-04-09T13:13:48.700Z,6.53
2023-04-09T13:16:18.479Z,7.37
2023-04-09T13:18:46.294Z,6.63
2023-04-09T13:21:18.848Z,7.13
2023-04-09T13:23:46.731Z,6.53
2023-04-09T13:26:14.578Z,7.22
2023-04-09T13:28:42.430Z,7.13
2023-04-09T13:31:12.044Z,7.20
2023-04-09T13:33:40.738Z,6.30
2023-04-09T13:36:08.978Z,6.90
2023-04-09T13:38:36.952Z,6.57
2023-04-09T13:41:05.018Z,5.85
2023-04-09T13:43:32.835Z,6.13
2023-04-09T13:46:00.845Z,6.93
2023-04-09T13:48:30.119Z,6.53
2023-04-09T13:50:58.134Z,6.47
2023-04-09T13:53:26.149Z,5.97
2023-04-09T13:55:54.010Z,5.80
2023-04-09T13:58:23.575Z,5.37
2023-04-09T14:00:51.376Z,5.73
2023-04-09T14:03:19.525Z,5.73
2023-04-09T14:05:49.925Z,4.93
2023-04-09T14:08:17.811Z,5.60
2023-04-09T14:10:45.624Z,5.73
2023-04-09T14:13:13.848Z,5.63
2023-04-09T14:15:41.991Z,5.00
2023-04-09T14:18:10.216Z,5.47
2023-04-09T14:20:38.458Z,4.83
2023-04-09T14:23:07.969Z,4.73
2023-04-09T14:25:35.816Z,5.67
2023-04-09T14:28:03.935Z,4.90
2023-04-09T14:30:31.725Z,5.20
2023-04-09T14:33:00.049Z,5.33
2023-04-09T14:35:27.889Z,5.67
2023-04-09T14:37:56.794Z,5.37
2023-04-09T14:40:25.952Z,5.17
2023-04-09T14:42:53.835Z,4.90
2023-04-09T14:45:21.874Z,5.17
2023-04-09T14:47:49.913Z,5.03
2023-04-09T14:50:18.024Z,4.80
2023-04-09T14:52:47.467Z,4.83
2023-04-09T14:55:15.565Z,5.37
2023-04-09T14:57:44.751Z,4.90
2023-04-09T15:00:13.585Z,4.60
2023-04-09T15:02:41.837Z,4.70
2023-04-09T15:05:10.997Z,4.80
2023-04-09T15:07:38.768Z,5.03
2023-04-09T15:10:07.713Z,4.43
2023-04-09T15:12:35.558Z,4.80
2023-04-09T15:15:08.616Z,5.10
2023-04-09T15:17:36.953Z,4.43
2023-04-09T15:20:05.553Z,5.57
2023-04-09T15:22:33.895Z,5.20
2023-04-09T15:25:02.061Z,7.57
2023-04-09T15:27:30.151Z,5.00
2023-04-09T15:29:58.308Z,5.13
2023-04-09T15:32:27.488Z,4.93
2023-04-09T15:34:55.674Z,5.53
2023-04-09T15:37:23.815Z,5.60
2023-04-09T15:39:53.412Z,5.10
2023-04-09T15:42:23.160Z,5.40
2023-04-09T15:44:51.614Z,6.03
2023-04-09T15:47:19.396Z,5.03
2023-04-09T15:49:48.742Z,5.80
2023-04-09T15:52:16.663Z,5.40
2023-04-09T15:54:44.833Z,5.67
2023-04-09T15:57:12.573Z,5.57
2023-04-09T15:59:40.691Z,6.30
2023-04-09T16:02:08.483Z,5.20
2023-04-09T16:04:36.506Z,5.80
2023-04-09T16:07:06.117Z,5.27
2023-04-09T16:09:34.046Z,6.37
2023-04-09T16:12:01.875Z,6.33
2023-04-09T16:14:30.362Z,6.03
2023-04-09T16:16:58.193Z,6.73
2023-04-09T16:22:09.977Z,6.17
2023-04-09T17:49:24.924Z,5.37
2023-04-09T17:52:19.209Z,5.70
2023-04-09T18:53:42.094Z,5.80
2023-04-09T19:01:07.259Z,6.20
2023-04-09T19:13:04.121Z,6.90
2023-04-09T19:15:49.236Z,7.70
2023-04-09T19:19:19.119Z,8.00
2023-04-09T19:51:25.717Z,8.50
2023-04-09T19:53:53.659Z,7.83
2023-04-09T19:59:40.001Z,7.27
2023-04-09T20:02:08.077Z,7.50
2023-04-09T20:04:38.209Z,8.77
2023-04-09T20:07:28.293Z,7.60
2023-04-09T20:14:00.358Z,8.53
2023-04-09T20:16:30.295Z,8.40
2023-04-09T20:20:03.207Z,9.40
2023-04-09T20:22:33.103Z,8.20
2023-04-09T20:25:21.446Z,8.37
2023-04-09T20:27:49.894Z,8.23
2023-04-09T20:30:33.050Z,8.50
2023-04-09T20:33:03.354Z,7.70
2023-04-09T20:36:04.673Z,7.70
2023-04-09T20:38:35.602Z,8.13
2023-04-09T20:41:06.604Z,8.00
2023-04-09T20:43:39.254Z,7.70
2023-04-09T20:46:07.323Z,8.40
2023-04-09T20:49:09.887Z,7.27
2023-04-09T20:51:37.925Z,9.07
2023-04-09T20:54:07.412Z,7.27
2023-04-09T20:56:35.512Z,7.20
2023-04-09T20:59:03.580Z,7.67
2023-04-09T21:02:20.180Z,8.73
2023-04-09T21:04:48.241Z,8.83
2023-04-09T21:07:16.202Z,7.90
2023-04-09T21:09:45.361Z,8.27
2023-04-09T21:12:13.300Z,8.37
2023-04-09T21:14:41.198Z,8.57
2023-04-09T21:17:18.290Z,9.17
2023-04-09T21:20:10.980Z,8.07
2023-04-09T21:23:01.356Z,8.30
2023-04-09T21:25:33.415Z,8.30
2023-04-09T21:28:43.341Z,8.63
2023-04-09T21:31:17.479Z,8.40
2023-04-09T21:33:45.479Z,8.93
2023-04-09T21:36:50.591Z,9.00
2023-04-09T21:39:42.564Z,7.87
2023-04-09T21:42:12.049Z,9.07
2023-04-09T21:44:40.129Z,9.10
2023-04-09T22:17:24.220Z,15.10
2023-04-09T22:20:16.818Z,13.73
2023-04-09T22:26:28.774Z,9.70
2023-04-09T22:29:40.742Z,10.47
2023-04-09T22:32:39.475Z,9.73
2023-04-09T22:41:52.211Z,10.53
2023-04-09T22:48:40.665Z,9.93
